Current Conditions
Scattered
Clouds



Pressure
1022.92 (hPa) - 30.21 (inHG)
Visibility

10.0 (km) - 6.2 (miles)
Temperature
17  °C
Temperature
13  °C
Dewpoint
77  %
 Humidity
Wind Speed
1.3  m/s
3  mph
5  km/h
3  kts
Wind Direction
N
45°
E
90°
135°
S
180°
225°
W
270°
315°
 250°

West South
West
Airport Data
EBDT
Schaffen Airfield
Metar :EBDT 062225Z AUTO 25003KT 9999 SCT062/// BKN120/// BKN140/// 17/13 Q1023 BLU
Thu 7th July 00:25 am
Raw Metar Info
Raw METAR is the most common format in the world for the transmission of observational weather data. It is highly standardized through the International Civil Aviation Organization (ICAO), which allows it to be understood throughout most of the world.
API Info
Data Provided by
https://www.checkwx.com/weather/EBDT

Aviation Weather providing METAR, TAF, AIRMET, SIGMET and OUTLOOK Weather Reports
© Info
CSS/SVG/PHP scripts were developed by weather34 for use in the weather34 template © 2015-2022

Guide Info provided by Metar-Wikipedia